sensor_id;sensor_type;location;lat;lon;timestamp;pressure;altitude;pressure_sealevel;temperature;humidity
28456;BME280;15682;56.742;38.866;2023-05-23T00:01:56;100080.0;;;14.0;78.1
28456;BME280;15682;56.742;38.866;2023-05-23T00:03:57;100080.0;;;14.0;77.5
28456;BME280;15682;56.742;38.866;2023-05-23T00:05:57;100080.0;;;14.0;77.0
28456;BME280;15682;56.742;38.866;2023-05-23T00:07:58;100080.0;;;13.8;79.4
28456;BME280;15682;56.742;38.866;2023-05-23T00:09:57;100080.0;;;13.8;78.8
28456;BME280;15682;56.742;38.866;2023-05-23T00:11:58;100080.0;;;13.8;78.4
28456;BME280;15682;56.742;38.866;2023-05-23T00:13:58;100070.0;;;13.8;78.1
28456;BME280;15682;56.742;38.866;2023-05-23T00:15:58;100070.0;;;13.8;77.9
28456;BME280;15682;56.742;38.866;2023-05-23T00:17:58;100070.0;;;13.8;79.3
28456;BME280;15682;56.742;38.866;2023-05-23T00:19:59;100070.0;;;13.7;78.1
28456;BME280;15682;56.742;38.866;2023-05-23T00:21:59;100070.0;;;13.6;79.3
28456;BME280;15682;56.742;38.866;2023-05-23T00:23:59;100070.0;;;13.5;78.6
28456;BME280;15682;56.742;38.866;2023-05-23T00:26:00;100070.0;;;13.5;80.4
28456;BME280;15682;56.742;38.866;2023-05-23T00:28:00;100070.0;;;13.5;78.9
28456;BME280;15682;56.742;38.866;2023-05-23T00:30:00;100070.0;;;13.4;77.4
28456;BME280;15682;56.742;38.866;2023-05-23T00:32:00;100070.0;;;13.4;78.8
28456;BME280;15682;56.742;38.866;2023-05-23T00:34:00;100080.0;;;13.4;79.8
28456;BME280;15682;56.742;38.866;2023-05-23T00:36:01;100080.0;;;13.4;81.4
28456;BME280;15682;56.742;38.866;2023-05-23T00:38:01;100080.0;;;13.4;78.4
28456;BME280;15682;56.742;38.866;2023-05-23T00:40:01;100080.0;;;13.3;79.7
28456;BME280;15682;56.742;38.866;2023-05-23T00:42:04;100080.0;;;13.3;78.9
28456;BME280;15682;56.742;38.866;2023-05-23T00:44:02;100080.0;;;13.2;78.9
28456;BME280;15682;56.742;38.866;2023-05-23T00:46:02;100080.0;;;13.1;80.4
28456;BME280;15682;56.742;38.866;2023-05-23T00:48:04;100080.0;;;12.9;78.9
28456;BME280;15682;56.742;38.866;2023-05-23T00:50:03;100080.0;;;12.9;79.9
28456;BME280;15682;56.742;38.866;2023-05-23T00:52:03;100080.0;;;12.9;80.1
28456;BME280;15682;56.742;38.866;2023-05-23T00:54:03;100080.0;;;12.9;79.5
28456;BME280;15682;56.742;38.866;2023-05-23T00:56:03;100080.0;;;12.9;79.4
28456;BME280;15682;56.742;38.866;2023-05-23T00:58:04;100080.0;;;13.1;79.4
28456;BME280;15682;56.742;38.866;2023-05-23T01:00:05;100080.0;;;13.0;78.2
28456;BME280;15682;56.742;38.866;2023-05-23T01:02:04;100080.0;;;13.0;77.8
28456;BME280;15682;56.742;38.866;2023-05-23T01:04:04;100080.0;;;13.0;78.0
28456;BME280;15682;56.742;38.866;2023-05-23T01:06:05;100080.0;;;13.0;77.9
28456;BME280;15682;56.742;38.866;2023-05-23T01:08:05;100080.0;;;13.0;77.8
28456;BME280;15682;56.742;38.866;2023-05-23T01:10:06;100080.0;;;13.0;76.7
28456;BME280;15682;56.742;38.866;2023-05-23T01:12:16;100080.0;;;13.0;77.7
28456;BME280;15682;56.742;38.866;2023-05-23T01:14:10;100080.0;;;13.0;78.7
28456;BME280;15682;56.742;38.866;2023-05-23T01:16:09;100080.0;;;13.0;78.1
28456;BME280;15682;56.742;38.866;2023-05-23T01:18:09;100080.0;;;13.0;78.1
28456;BME280;15682;56.742;38.866;2023-05-23T01:20:10;100080.0;;;13.0;77.4
28456;BME280;15682;56.742;38.866;2023-05-23T01:24:27;100070.0;;;13.0;77.8
28456;BME280;15682;56.742;38.866;2023-05-23T01:26:16;100070.0;;;13.0;80.7
28456;BME280;15682;56.742;38.866;2023-05-23T01:28:10;100070.0;;;13.2;81.4
28456;BME280;15682;56.742;38.866;2023-05-23T01:30:09;100070.0;;;13.2;79.3
28456;BME280;15682;56.742;38.866;2023-05-23T01:32:11;100070.0;;;13.2;79.5
28456;BME280;15682;56.742;38.866;2023-05-23T01:34:08;100070.0;;;13.2;77.8
28456;BME280;15682;56.742;38.866;2023-05-23T01:36:09;100070.0;;;13.2;77.1
28456;BME280;15682;56.742;38.866;2023-05-23T01:38:08;100070.0;;;13.3;77.9
28456;BME280;15682;56.742;38.866;2023-05-23T01:40:09;100070.0;;;13.3;77.4
28456;BME280;15682;56.742;38.866;2023-05-23T01:42:09;100070.0;;;13.3;78.5
28456;BME280;15682;56.742;38.866;2023-05-23T01:44:09;100060.0;;;13.4;80.0
28456;BME280;15682;56.742;38.866;2023-05-23T01:46:10;100060.0;;;13.4;81.5
28456;BME280;15682;56.742;38.866;2023-05-23T01:48:10;100060.0;;;13.4;83.5
28456;BME280;15682;56.742;38.866;2023-05-23T01:50:11;100060.0;;;13.5;78.7
28456;BME280;15682;56.742;38.866;2023-05-23T01:52:11;100060.0;;;13.5;78.7
28456;BME280;15682;56.742;38.866;2023-05-23T01:54:11;100060.0;;;13.5;77.9
28456;BME280;15682;56.742;38.866;2023-05-23T01:56:11;100060.0;;;13.5;78.9
28456;BME280;15682;56.742;38.866;2023-05-23T01:58:11;100060.0;;;13.5;80.6
28456;BME280;15682;56.742;38.866;2023-05-23T02:00:12;100060.0;;;13.3;78.8
28456;BME280;15682;56.742;38.866;2023-05-23T02:02:11;100060.0;;;13.3;78.8
28456;BME280;15682;56.742;38.866;2023-05-23T02:04:12;100060.0;;;13.3;78.4
28456;BME280;15682;56.742;38.866;2023-05-23T02:06:12;100060.0;;;13.5;81.8
28456;BME280;15682;56.742;38.866;2023-05-23T02:08:12;100060.0;;;13.5;79.4
28456;BME280;15682;56.742;38.866;2023-05-23T02:10:13;100060.0;;;13.6;80.2
28456;BME280;15682;56.742;38.866;2023-05-23T02:12:13;100060.0;;;13.6;81.3
28456;BME280;15682;56.742;38.866;2023-05-23T02:14:13;100060.0;;;13.6;80.4
28456;BME280;15682;56.742;38.866;2023-05-23T02:16:13;100060.0;;;13.6;78.9
28456;BME280;15682;56.742;38.866;2023-05-23T02:18:14;100060.0;;;13.8;81.1
28456;BME280;15682;56.742;38.866;2023-05-23T02:20:14;100060.0;;;13.8;83.0
28456;BME280;15682;56.742;38.866;2023-05-23T02:22:14;100050.0;;;13.8;83.0
28456;BME280;15682;56.742;38.866;2023-05-23T02:24:14;100050.0;;;13.8;83.8
28456;BME280;15682;56.742;38.866;2023-05-23T02:26:15;100050.0;;;13.8;83.8
28456;BME280;15682;56.742;38.866;2023-05-23T02:28:15;100050.0;;;13.8;83.3
28456;BME280;15682;56.742;38.866;2023-05-23T02:30:15;100050.0;;;13.8;82.5
28456;BME280;15682;56.742;38.866;2023-05-23T02:32:15;100050.0;;;13.9;82.5
28456;BME280;15682;56.742;38.866;2023-05-23T02:34:16;100050.0;;;13.9;83.3
28456;BME280;15682;56.742;38.866;2023-05-23T02:36:16;100050.0;;;14.0;82.7
28456;BME280;15682;56.742;38.866;2023-05-23T02:38:16;100050.0;;;14.2;84.1
28456;BME280;15682;56.742;38.866;2023-05-23T02:40:17;100050.0;;;14.3;84.1
28456;BME280;15682;56.742;38.866;2023-05-23T02:42:17;100050.0;;;14.2;84.1
28456;BME280;15682;56.742;38.866;2023-05-23T02:44:17;100050.0;;;14.3;79.2
28456;BME280;15682;56.742;38.866;2023-05-23T02:46:18;100050.0;;;14.3;82.5
28456;BME280;15682;56.742;38.866;2023-05-23T02:48:19;100040.0;;;14.3;80.7
28456;BME280;15682;56.742;38.866;2023-05-23T02:50:18;100030.0;;;14.4;80.1
28456;BME280;15682;56.742;38.866;2023-05-23T02:52:18;100030.0;;;14.4;81.6
28456;BME280;15682;56.742;38.866;2023-05-23T02:54:19;100030.0;;;14.4;80.2
28456;BME280;15682;56.742;38.866;2023-05-23T02:56:19;100030.0;;;14.4;82.1
28456;BME280;15682;56.742;38.866;2023-05-23T02:58:19;100030.0;;;14.4;83.0
28456;BME280;15682;56.742;38.866;2023-05-23T03:00:20;100030.0;;;14.3;83.5
28456;BME280;15682;56.742;38.866;2023-05-23T03:02:20;100030.0;;;14.3;80.5
28456;BME280;15682;56.742;38.866;2023-05-23T03:04:20;100030.0;;;14.3;82.2
28456;BME280;15682;56.742;38.866;2023-05-23T03:06:21;100030.0;;;14.3;82.2
28456;BME280;15682;56.742;38.866;2023-05-23T03:08:21;100050.0;;;14.3;81.2
28456;BME280;15682;56.742;38.866;2023-05-23T03:10:22;100050.0;;;14.3;81.8
28456;BME280;15682;56.742;38.866;2023-05-23T03:12:22;100050.0;;;14.2;81.8
28456;BME280;15682;56.742;38.866;2023-05-23T03:14:22;100050.0;;;14.1;81.8
28456;BME280;15682;56.742;38.866;2023-05-23T03:16:22;100050.0;;;14.1;81.8
28456;BME280;15682;56.742;38.866;2023-05-23T03:18:22;100050.0;;;14.1;81.8
28456;BME280;15682;56.742;38.866;2023-05-23T03:20:23;100060.0;;;13.9;81.8
28456;BME280;15682;56.742;38.866;2023-05-23T03:22:23;100060.0;;;13.9;81.8
28456;BME280;15682;56.742;38.866;2023-05-23T03:24:23;100060.0;;;14.0;82.9
28456;BME280;15682;56.742;38.866;2023-05-23T03:26:23;100060.0;;;13.9;82.2
28456;BME280;15682;56.742;38.866;2023-05-23T03:28:24;100050.0;;;13.9;82.1
28456;BME280;15682;56.742;38.866;2023-05-23T03:30:24;100050.0;;;13.9;81.6
28456;BME280;15682;56.742;38.866;2023-05-23T03:32:24;100050.0;;;13.9;81.6
28456;BME280;15682;56.742;38.866;2023-05-23T03:34:25;100050.0;;;13.9;81.1
28456;BME280;15682;56.742;38.866;2023-05-23T03:36:25;100050.0;;;14.0;81.1
28456;BME280;15682;56.742;38.866;2023-05-23T03:38:26;100050.0;;;14.1;81.1
28456;BME280;15682;56.742;38.866;2023-05-23T03:40:25;100050.0;;;14.3;80.3
28456;BME280;15682;56.742;38.866;2023-05-23T03:42:27;100050.0;;;14.4;79.4
28456;BME280;15682;56.742;38.866;2023-05-23T03:44:26;100050.0;;;14.6;79.4
28456;BME280;15682;56.742;38.866;2023-05-23T03:46:26;100050.0;;;14.8;78.4
28456;BME280;15682;56.742;38.866;2023-05-23T03:48:26;100050.0;;;14.9;77.6
28456;BME280;15682;56.742;38.866;2023-05-23T03:50:27;100050.0;;;15.0;77.0
28456;BME280;15682;56.742;38.866;2023-05-23T03:52:27;100050.0;;;15.2;76.0
28456;BME280;15682;56.742;38.866;2023-05-23T03:54:27;100050.0;;;15.2;76.0
28456;BME280;15682;56.742;38.866;2023-05-23T03:56:27;100050.0;;;15.4;75.2
28456;BME280;15682;56.742;38.866;2023-05-23T03:58:28;100050.0;;;15.6;75.2
28456;BME280;15682;56.742;38.866;2023-05-23T04:00:28;100050.0;;;15.6;75.2
28456;BME280;15682;56.742;38.866;2023-05-23T04:02:28;100050.0;;;15.6;74.5
28456;BME280;15682;56.742;38.866;2023-05-23T04:04:29;100050.0;;;15.7;73.8
28456;BME280;15682;56.742;38.866;2023-05-23T04:06:29;100050.0;;;15.9;73.8
28456;BME280;15682;56.742;38.866;2023-05-23T04:08:29;100050.0;;;15.9;73.7
28456;BME280;15682;56.742;38.866;2023-05-23T04:10:29;100050.0;;;15.9;73.7
28456;BME280;15682;56.742;38.866;2023-05-23T04:12:30;100050.0;;;15.9;73.7
28456;BME280;15682;56.742;38.866;2023-05-23T04:14:30;100050.0;;;15.9;73.7
28456;BME280;15682;56.742;38.866;2023-05-23T04:16:31;100050.0;;;16.0;73.7
28456;BME280;15682;56.742;38.866;2023-05-23T04:18:31;100050.0;;;16.0;74.3
28456;BME280;15682;56.742;38.866;2023-05-23T04:20:31;100050.0;;;16.1;73.7
28456;BME280;15682;56.742;38.866;2023-05-23T04:22:31;100050.0;;;16.1;73.7
28456;BME280;15682;56.742;38.866;2023-05-23T04:24:32;100050.0;;;16.3;73.7
28456;BME280;15682;56.742;38.866;2023-05-23T04:26:32;100050.0;;;16.2;72.9
28456;BME280;15682;56.742;38.866;2023-05-23T04:28:33;100050.0;;;16.2;72.9
28456;BME280;15682;56.742;38.866;2023-05-23T04:30:33;100050.0;;;16.2;73.6
28456;BME280;15682;56.742;38.866;2023-05-23T04:32:33;100050.0;;;16.2;73.6
28456;BME280;15682;56.742;38.866;2023-05-23T04:34:33;100050.0;;;16.2;73.6
28456;BME280;15682;56.742;38.866;2023-05-23T04:36:34;100050.0;;;16.3;73.6
28456;BME280;15682;56.742;38.866;2023-05-23T04:38:34;100050.0;;;16.3;75.8
28456;BME280;15682;56.742;38.866;2023-05-23T04:40:34;100050.0;;;16.3;75.8
28456;BME280;15682;56.742;38.866;2023-05-23T04:42:35;100050.0;;;16.3;75.0
28456;BME280;15682;56.742;38.866;2023-05-23T04:44:35;100050.0;;;16.3;74.4
28456;BME280;15682;56.742;38.866;2023-05-23T04:46:35;100050.0;;;16.3;74.6
28456;BME280;15682;56.742;38.866;2023-05-23T04:48:36;100050.0;;;16.3;73.8
28456;BME280;15682;56.742;38.866;2023-05-23T04:50:36;100050.0;;;16.4;73.1
28456;BME280;15682;56.742;38.866;2023-05-23T04:52:36;100050.0;;;16.4;73.6
28456;BME280;15682;56.742;38.866;2023-05-23T04:54:36;100050.0;;;16.6;74.2
28456;BME280;15682;56.742;38.866;2023-05-23T04:56:37;100060.0;;;16.5;74.2
28456;BME280;15682;56.742;38.866;2023-05-23T04:58:37;100060.0;;;16.5;73.1
28456;BME280;15682;56.742;38.866;2023-05-23T05:00:37;100060.0;;;16.5;73.8
28456;BME280;15682;56.742;38.866;2023-05-23T05:02:38;100060.0;;;16.7;73.8
28456;BME280;15682;56.742;38.866;2023-05-23T05:04:39;100060.0;;;16.7;73.8
28456;BME280;15682;56.742;38.866;2023-05-23T05:06:39;100060.0;;;16.7;73.0
28456;BME280;15682;56.742;38.866;2023-05-23T05:08:39;100060.0;;;16.7;73.0
28456;BME280;15682;56.742;38.866;2023-05-23T05:10:39;100070.0;;;16.7;73.0
28456;BME280;15682;56.742;38.866;2023-05-23T05:12:39;100070.0;;;16.7;72.2
28456;BME280;15682;56.742;38.866;2023-05-23T05:14:40;100070.0;;;16.8;72.2
28456;BME280;15682;56.742;38.866;2023-05-23T05:16:40;100070.0;;;16.8;72.2
28456;BME280;15682;56.742;38.866;2023-05-23T05:18:41;100070.0;;;16.8;73.6
28456;BME280;15682;56.742;38.866;2023-05-23T05:20:41;100070.0;;;16.7;73.5
28456;BME280;15682;56.742;38.866;2023-05-23T05:22:41;100070.0;;;16.7;73.3
28456;BME280;15682;56.742;38.866;2023-05-23T05:24:41;100070.0;;;16.7;74.0
28456;BME280;15682;56.742;38.866;2023-05-23T05:26:42;100070.0;;;16.8;74.0
28456;BME280;15682;56.742;38.866;2023-05-23T05:28:42;100080.0;;;16.8;74.9
28456;BME280;15682;56.742;38.866;2023-05-23T05:30:42;100090.0;;;16.8;75.4
28456;BME280;15682;56.742;38.866;2023-05-23T05:32:43;100090.0;;;16.7;76.3
28456;BME280;15682;56.742;38.866;2023-05-23T05:34:43;100090.0;;;16.6;77.6
28456;BME280;15682;56.742;38.866;2023-05-23T05:36:44;100090.0;;;16.5;77.6
28456;BME280;15682;56.742;38.866;2023-05-23T05:38:44;100090.0;;;16.4;78.1
28456;BME280;15682;56.742;38.866;2023-05-23T05:40:44;100100.0;;;16.4;77.4
28456;BME280;15682;56.742;38.866;2023-05-23T05:42:44;100100.0;;;16.4;78.4
28456;BME280;15682;56.742;38.866;2023-05-23T05:44:45;100100.0;;;16.4;78.4
28456;BME280;15682;56.742;38.866;2023-05-23T05:46:45;100110.0;;;16.4;78.4
28456;BME280;15682;56.742;38.866;2023-05-23T05:48:45;100110.0;;;16.4;78.5
28456;BME280;15682;56.742;38.866;2023-05-23T05:50:46;100120.0;;;16.6;78.5
28456;BME280;15682;56.742;38.866;2023-05-23T05:52:46;100120.0;;;16.6;78.5
28456;BME280;15682;56.742;38.866;2023-05-23T05:54:46;100120.0;;;16.7;78.5
28456;BME280;15682;56.742;38.866;2023-05-23T05:56:47;100120.0;;;16.7;78.9
28456;BME280;15682;56.742;38.866;2023-05-23T05:58:47;100120.0;;;16.7;79.1
28456;BME280;15682;56.742;38.866;2023-05-23T06:00:47;100120.0;;;16.7;79.7
28456;BME280;15682;56.742;38.866;2023-05-23T06:02:47;100120.0;;;16.9;79.7
28456;BME280;15682;56.742;38.866;2023-05-23T06:04:48;100120.0;;;16.9;80.7
28456;BME280;15682;56.742;38.866;2023-05-23T06:06:48;100130.0;;;16.9;80.1
28456;BME280;15682;56.742;38.866;2023-05-23T06:08:48;100110.0;;;16.9;79.5
28456;BME280;15682;56.742;38.866;2023-05-23T06:10:49;100080.0;;;16.9;81.3
28456;BME280;15682;56.742;38.866;2023-05-23T06:12:49;100080.0;;;17.0;81.3
28456;BME280;15682;56.742;38.866;2023-05-23T06:14:49;100080.0;;;17.2;82.2
28456;BME280;15682;56.742;38.866;2023-05-23T06:16:50;100080.0;;;17.4;80.6
28456;BME280;15682;56.742;38.866;2023-05-23T06:18:50;100070.0;;;17.6;80.1
28456;BME280;15682;56.742;38.866;2023-05-23T06:20:50;100070.0;;;17.9;79.5
28456;BME280;15682;56.742;38.866;2023-05-23T06:22:51;100070.0;;;18.0;78.2
28456;BME280;15682;56.742;38.866;2023-05-23T06:24:51;100070.0;;;18.3;77.6
28456;BME280;15682;56.742;38.866;2023-05-23T06:26:51;100070.0;;;18.5;76.6
28456;BME280;15682;56.742;38.866;2023-05-23T06:28:52;100070.0;;;18.8;76.6
28456;BME280;15682;56.742;38.866;2023-05-23T06:30:52;100070.0;;;19.0;74.5
28456;BME280;15682;56.742;38.866;2023-05-23T06:32:52;100070.0;;;19.2;74.5
28456;BME280;15682;56.742;38.866;2023-05-23T06:34:53;100050.0;;;19.7;72.8
28456;BME280;15682;56.742;38.866;2023-05-23T06:36:53;100050.0;;;19.9;72.7
28456;BME280;15682;56.742;38.866;2023-05-23T06:38:54;100050.0;;;19.9;72.7
28456;BME280;15682;56.742;38.866;2023-05-23T06:40:54;100050.0;;;19.9;72.3
28456;BME280;15682;56.742;38.866;2023-05-23T06:42:54;100050.0;;;20.0;73.4
28456;BME280;15682;56.742;38.866;2023-05-23T06:44:55;100050.0;;;20.0;73.4
28456;BME280;15682;56.742;38.866;2023-05-23T06:46:55;100050.0;;;19.9;72.9
28456;BME280;15682;56.742;38.866;2023-05-23T06:48:56;100050.0;;;20.2;72.7
28456;BME280;15682;56.742;38.866;2023-05-23T06:50:56;100050.0;;;20.2;71.3
28456;BME280;15682;56.742;38.866;2023-05-23T06:52:57;100050.0;;;20.2;70.7
28456;BME280;15682;56.742;38.866;2023-05-23T06:54:57;100050.0;;;20.6;70.7
28456;BME280;15682;56.742;38.866;2023-05-23T06:56:57;100050.0;;;21.1;69.6
28456;BME280;15682;56.742;38.866;2023-05-23T06:58:58;100040.0;;;21.1;68.8
28456;BME280;15682;56.742;38.866;2023-05-23T07:00:58;100040.0;;;21.1;67.6
28456;BME280;15682;56.742;38.866;2023-05-23T07:02:59;100040.0;;;21.4;67.6
28456;BME280;15682;56.742;38.866;2023-05-23T07:04:59;100040.0;;;21.4;67.9
28456;BME280;15682;56.742;38.866;2023-05-23T07:07:00;100040.0;;;21.5;66.3
28456;BME280;15682;56.742;38.866;2023-05-23T07:09:00;100040.0;;;21.5;69.0
28456;BME280;15682;56.742;38.866;2023-05-23T07:11:02;100040.0;;;21.5;69.6
28456;BME280;15682;56.742;38.866;2023-05-23T07:13:01;100040.0;;;21.6;67.6
28456;BME280;15682;56.742;38.866;2023-05-23T07:15:02;100030.0;;;21.8;66.3
28456;BME280;15682;56.742;38.866;2023-05-23T07:17:02;100030.0;;;21.4;68.3
28456;BME280;15682;56.742;38.866;2023-05-23T07:19:03;100030.0;;;21.6;68.3
28456;BME280;15682;56.742;38.866;2023-05-23T07:21:04;100030.0;;;21.7;66.4
28456;BME280;15682;56.742;38.866;2023-05-23T07:23:04;100030.0;;;21.8;65.7
28456;BME280;15682;56.742;38.866;2023-05-23T07:25:05;100030.0;;;21.8;65.7
28456;BME280;15682;56.742;38.866;2023-05-23T07:27:05;100050.0;;;21.9;65.9
28456;BME280;15682;56.742;38.866;2023-05-23T07:29:05;100050.0;;;21.5;66.2
28456;BME280;15682;56.742;38.866;2023-05-23T07:31:06;100050.0;;;21.5;66.2
28456;BME280;15682;56.742;38.866;2023-05-23T07:33:06;100050.0;;;21.4;66.8
28456;BME280;15682;56.742;38.866;2023-05-23T07:35:07;100050.0;;;21.4;66.8
28456;BME280;15682;56.742;38.866;2023-05-23T07:37:07;100050.0;;;21.4;66.4
28456;BME280;15682;56.742;38.866;2023-05-23T07:39:08;100050.0;;;21.4;66.9
28456;BME280;15682;56.742;38.866;2023-05-23T07:41:08;100050.0;;;21.2;67.8
28456;BME280;15682;56.742;38.866;2023-05-23T07:43:09;100050.0;;;21.2;67.1
28456;BME280;15682;56.742;38.866;2023-05-23T07:45:10;100050.0;;;21.3;67.1
28456;BME280;15682;56.742;38.866;2023-05-23T07:47:09;100050.0;;;21.3;65.9
28456;BME280;15682;56.742;38.866;2023-05-23T07:49:10;100050.0;;;20.9;65.0
28456;BME280;15682;56.742;38.866;2023-05-23T07:51:10;100030.0;;;20.9;65.9
28456;BME280;15682;56.742;38.866;2023-05-23T07:53:11;100030.0;;;21.1;66.7
28456;BME280;15682;56.742;38.866;2023-05-23T07:55:11;100030.0;;;21.1;65.5
28456;BME280;15682;56.742;38.866;2023-05-23T07:57:12;100030.0;;;21.2;67.1
28456;BME280;15682;56.742;38.866;2023-05-23T07:59:12;100030.0;;;21.2;67.1
28456;BME280;15682;56.742;38.866;2023-05-23T08:01:13;100030.0;;;21.1;66.4
28456;BME280;15682;56.742;38.866;2023-05-23T08:03:13;100030.0;;;21.1;66.1
28456;BME280;15682;56.742;38.866;2023-05-23T08:05:14;100020.0;;;20.9;66.1
28456;BME280;15682;56.742;38.866;2023-05-23T08:07:14;100000.0;;;20.8;64.1
28456;BME280;15682;56.742;38.866;2023-05-23T08:09:15;100000.0;;;21.0;64.9
28456;BME280;15682;56.742;38.866;2023-05-23T08:11:15;100000.0;;;21.0;65.5
28456;BME280;15682;56.742;38.866;2023-05-23T08:13:15;99980.0;;;21.0;62.6
28456;BME280;15682;56.742;38.866;2023-05-23T08:15:16;99980.0;;;20.8;64.0
28456;BME280;15682;56.742;38.866;2023-05-23T08:17:16;99980.0;;;20.7;63.9
28456;BME280;15682;56.742;38.866;2023-05-23T08:19:17;99980.0;;;20.6;63.2
28456;BME280;15682;56.742;38.866;2023-05-23T08:21:17;99980.0;;;20.6;64.9
28456;BME280;15682;56.742;38.866;2023-05-23T08:23:18;99980.0;;;20.4;65.8
28456;BME280;15682;56.742;38.866;2023-05-23T08:25:18;99980.0;;;20.4;67.3
28456;BME280;15682;56.742;38.866;2023-05-23T08:27:19;99980.0;;;20.5;64.2
28456;BME280;15682;56.742;38.866;2023-05-23T08:29:19;99980.0;;;20.6;64.2
28456;BME280;15682;56.742;38.866;2023-05-23T08:31:19;99980.0;;;20.6;66.2
28456;BME280;15682;56.742;38.866;2023-05-23T08:33:20;100000.0;;;20.5;69.1
28456;BME280;15682;56.742;38.866;2023-05-23T08:35:21;100000.0;;;20.4;70.0
28456;BME280;15682;56.742;38.866;2023-05-23T08:37:21;100000.0;;;20.4;70.2
28456;BME280;15682;56.742;38.866;2023-05-23T08:39:21;100000.0;;;20.6;70.2
28456;BME280;15682;56.742;38.866;2023-05-23T08:41:24;100000.0;;;20.6;68.9
28456;BME280;15682;56.742;38.866;2023-05-23T08:43:22;100000.0;;;20.6;67.3
28456;BME280;15682;56.742;38.866;2023-05-23T08:45:22;100000.0;;;20.8;67.3
28456;BME280;15682;56.742;38.866;2023-05-23T08:47:23;100000.0;;;20.8;70.7
28456;BME280;15682;56.742;38.866;2023-05-23T08:49:23;100000.0;;;20.9;68.7
28456;BME280;15682;56.742;38.866;2023-05-23T08:51:26;99990.0;;;21.0;67.2
28456;BME280;15682;56.742;38.866;2023-05-23T08:53:26;99990.0;;;21.2;66.5
28456;BME280;15682;56.742;38.866;2023-05-23T08:55:26;99990.0;;;21.3;67.3
28456;BME280;15682;56.742;38.866;2023-05-23T08:57:25;99980.0;;;21.3;65.8
28456;BME280;15682;56.742;38.866;2023-05-23T08:59:25;99980.0;;;21.3;65.2
28456;BME280;15682;56.742;38.866;2023-05-23T09:01:26;99970.0;;;21.4;65.2
28456;BME280;15682;56.742;38.866;2023-05-23T09:03:26;99970.0;;;21.3;65.7
28456;BME280;15682;56.742;38.866;2023-05-23T09:05:27;99970.0;;;21.3;66.7
28456;BME280;15682;56.742;38.866;2023-05-23T09:07:27;99970.0;;;21.3;65.7
28456;BME280;15682;56.742;38.866;2023-05-23T09:09:28;99970.0;;;21.3;65.7
28456;BME280;15682;56.742;38.866;2023-05-23T09:11:29;99970.0;;;21.2;66.2
28456;BME280;15682;56.742;38.866;2023-05-23T09:13:29;99970.0;;;21.0;66.2
28456;BME280;15682;56.742;38.866;2023-05-23T09:15:29;99970.0;;;20.7;66.2
28456;BME280;15682;56.742;38.866;2023-05-23T09:17:30;99970.0;;;20.7;66.8
28456;BME280;15682;56.742;38.866;2023-05-23T09:19:30;99970.0;;;20.7;67.7
28456;BME280;15682;56.742;38.866;2023-05-23T09:21:30;99970.0;;;20.7;66.7
28456;BME280;15682;56.742;38.866;2023-05-23T09:23:31;99970.0;;;20.7;66.7
28456;BME280;15682;56.742;38.866;2023-05-23T09:25:31;99970.0;;;20.8;67.4
28456;BME280;15682;56.742;38.866;2023-05-23T09:27:32;99970.0;;;20.9;67.4
28456;BME280;15682;56.742;38.866;2023-05-23T09:29:36;99970.0;;;20.7;67.4
28456;BME280;15682;56.742;38.866;2023-05-23T09:31:33;99970.0;;;20.7;66.7
28456;BME280;15682;56.742;38.866;2023-05-23T09:33:37;99970.0;;;20.7;66.7
28456;BME280;15682;56.742;38.866;2023-05-23T09:35:33;99970.0;;;20.8;66.7
28456;BME280;15682;56.742;38.866;2023-05-23T09:37:35;99970.0;;;20.9;67.1
28456;BME280;15682;56.742;38.866;2023-05-23T09:39:36;99970.0;;;20.9;66.0
28456;BME280;15682;56.742;38.866;2023-05-23T09:41:35;99970.0;;;21.3;65.4
28456;BME280;15682;56.742;38.866;2023-05-23T09:43:36;99970.0;;;21.4;64.6
28456;BME280;15682;56.742;38.866;2023-05-23T09:45:35;99970.0;;;21.4;64.6
28456;BME280;15682;56.742;38.866;2023-05-23T09:47:36;99970.0;;;21.4;64.6
28456;BME280;15682;56.742;38.866;2023-05-23T09:49:38;99970.0;;;21.6;64.6
28456;BME280;15682;56.742;38.866;2023-05-23T09:51:37;99970.0;;;21.7;64.6
28456;BME280;15682;56.742;38.866;2023-05-23T09:53:37;99950.0;;;21.7;65.3
28456;BME280;15682;56.742;38.866;2023-05-23T09:55:38;99950.0;;;21.6;64.8
28456;BME280;15682;56.742;38.866;2023-05-23T09:57:40;99950.0;;;21.9;65.1
28456;BME280;15682;56.742;38.866;2023-05-23T09:59:40;99940.0;;;22.0;64.1
28456;BME280;15682;56.742;38.866;2023-05-23T10:01:41;99940.0;;;21.9;64.7
28456;BME280;15682;56.742;38.866;2023-05-23T10:03:44;99940.0;;;21.7;64.7
28456;BME280;15682;56.742;38.866;2023-05-23T10:05:43;99940.0;;;21.8;64.7
28456;BME280;15682;56.742;38.866;2023-05-23T10:07:40;99930.0;;;21.9;64.2
28456;BME280;15682;56.742;38.866;2023-05-23T10:09:44;99930.0;;;21.6;62.6
28456;BME280;15682;56.742;38.866;2023-05-23T10:13:42;99930.0;;;21.5;61.2
28456;BME280;15682;56.742;38.866;2023-05-23T10:15:42;99920.0;;;21.4;62.2
28456;BME280;15682;56.742;38.866;2023-05-23T10:17:53;99920.0;;;21.4;63.3
28456;BME280;15682;56.742;38.866;2023-05-23T10:19:46;99920.0;;;21.2;63.3
28456;BME280;15682;56.742;38.866;2023-05-23T10:21:48;99920.0;;;21.2;64.1
28456;BME280;15682;56.742;38.866;2023-05-23T10:23:45;99920.0;;;21.1;64.1
28456;BME280;15682;56.742;38.866;2023-05-23T10:25:45;99920.0;;;21.2;64.1
28456;BME280;15682;56.742;38.866;2023-05-23T10:27:47;99920.0;;;21.3;64.5
28456;BME280;15682;56.742;38.866;2023-05-23T10:29:45;99930.0;;;21.3;64.5
28456;BME280;15682;56.742;38.866;2023-05-23T10:31:46;99940.0;;;21.3;64.5
28456;BME280;15682;56.742;38.866;2023-05-23T10:33:55;99950.0;;;21.6;64.8
28456;BME280;15682;56.742;38.866;2023-05-23T10:35:52;99970.0;;;21.6;64.6
28456;BME280;15682;56.742;38.866;2023-05-23T10:37:54;99970.0;;;21.7;64.0
28456;BME280;15682;56.742;38.866;2023-05-23T10:39:56;99970.0;;;21.5;64.8
28456;BME280;15682;56.742;38.866;2023-05-23T10:41:51;99970.0;;;21.5;65.5
28456;BME280;15682;56.742;38.866;2023-05-23T10:43:56;99970.0;;;21.5;66.2
28456;BME280;15682;56.742;38.866;2023-05-23T10:45:48;99970.0;;;21.5;65.4
28456;BME280;15682;56.742;38.866;2023-05-23T10:47:50;99980.0;;;21.5;65.7
28456;BME280;15682;56.742;38.866;2023-05-23T10:49:51;99980.0;;;21.7;65.7
28456;BME280;15682;56.742;38.866;2023-05-23T10:51:50;99980.0;;;21.7;64.8